Time;durP1;ratioP1;P1;durP2;ratioP2;P2;SDS_P1;SDS_P2;PMS_P1;PMS_P2;Temp;Humidity;BMP_temperature;BMP_pressure;BME280_temperature;BME280_humidity;BME280_pressure;Samples;Min_cycle;Max_cycle;Signal;HPM_P1;HPM_P2
2021/11/09 00:01:56;;;;;;;9.05;2.35;;;9.20;99.90;;;;;;5043971;28;20037;-78
2021/11/09 00:04:27;;;;;;;6.90;2.53;;;9.30;99.90;;;;;;5045159;28;20033;-79
2021/11/09 00:07:05;;;;;;;3.97;2.05;;;9.30;99.90;;;;;;5043953;28;20058;-79
2021/11/09 00:09:45;;;;;;;3.50;1.50;;;9.20;99.90;;;;;;5044838;28;20045;-79
2021/11/09 00:12:10;;;;;;;2.65;1.48;;;9.20;99.90;;;;;;5043732;28;20061;-79
2021/11/09 00:14:36;;;;;;;5.70;1.83;;;9.20;99.90;;;;;;5043408;28;20037;-79
2021/11/09 00:17:02;;;;;;;13.40;2.58;;;9.20;99.90;;;;;;5044406;28;20025;-78
2021/11/09 00:19:27;;;;;;;16.35;1.77;;;9.20;99.90;;;;;;5043569;28;20029;-79
2021/11/09 00:21:53;;;;;;;10.10;2.97;;;9.10;99.90;;;;;;5044710;28;20040;-80
2021/11/09 00:24:19;;;;;;;3.10;1.92;;;9.10;99.90;;;;;;5043533;28;20091;-79
2021/11/09 00:26:47;;;;;;;5.10;1.67;;;9.10;99.90;;;;;;5044770;28;20025;-77
2021/11/09 00:29:14;;;;;;;4.05;1.65;;;9.10;99.90;;;;;;5043198;28;20085;-77
2021/11/09 00:31:40;;;;;;;12.50;2.75;;;9.00;99.90;;;;;;5045050;28;20037;-77
2021/11/09 00:34:05;;;;;;;3.05;1.70;;;9.00;99.90;;;;;;5044471;28;20517;-76
2021/11/09 00:36:31;;;;;;;4.63;1.73;;;9.00;99.90;;;;;;5043188;28;20029;-76
2021/11/09 00:38:57;;;;;;;5.25;2.38;;;9.00;99.90;;;;;;5043708;28;20026;-77
2021/11/09 00:41:23;;;;;;;4.85;1.38;;;9.00;99.90;;;;;;5042627;28;20025;-77
2021/11/09 00:43:49;;;;;;;11.68;3.45;;;9.00;99.90;;;;;;5042733;28;20042;-78
2021/11/09 00:46:15;;;;;;;11.65;1.90;;;9.00;99.90;;;;;;5044759;28;20029;-78
2021/11/09 00:48:40;;;;;;;6.03;2.17;;;9.00;99.90;;;;;;5044703;28;20486;-77
2021/11/09 00:51:06;;;;;;;22.95;2.42;;;8.90;99.90;;;;;;5043127;28;20029;-78
2021/11/09 00:53:31;;;;;;;3.97;2.08;;;9.00;99.90;;;;;;5044268;28;20359;-78
2021/11/09 00:55:57;;;;;;;10.30;3.63;;;8.90;99.90;;;;;;5043087;28;20029;-78
2021/11/09 00:58:23;;;;;;;11.30;2.13;;;8.90;99.90;;;;;;5041937;28;20034;-77
2021/11/09 01:00:49;;;;;;;7.65;2.47;;;8.90;99.90;;;;;;5042997;28;20079;-78
2021/11/09 01:03:15;;;;;;;8.93;1.45;;;8.90;99.90;;;;;;5044674;28;20029;-77
2021/11/09 01:05:41;;;;;;;6.40;1.90;;;8.90;99.90;;;;;;5043915;28;20064;-78
2021/11/09 01:08:10;;;;;;;9.15;2.97;;;8.90;99.90;;;;;;5044576;28;20045;-77
2021/11/09 01:10:40;;;;;;;8.40;2.67;;;8.90;99.90;;;;;;5044344;28;20025;-78
2021/11/09 01:13:07;;;;;;;9.07;2.75;;;8.90;99.90;;;;;;5044438;28;20025;-78
2021/11/09 01:15:34;;;;;;;12.45;2.30;;;8.90;99.90;;;;;;5042996;28;20097;-78
2021/11/09 01:18:01;;;;;;;7.45;2.22;;;8.90;99.90;;;;;;5044307;28;20029;-79
2021/11/09 01:20:27;;;;;;;5.78;2.10;;;8.90;99.90;;;;;;5044263;28;20033;-79
2021/11/09 01:22:55;;;;;;;12.10;2.67;;;8.90;99.90;;;;;;5042549;28;20075;-78
2021/11/09 01:25:24;;;;;;;3.58;1.77;;;9.00;99.90;;;;;;5044423;28;20052;-78
2021/11/09 01:27:50;;;;;;;2.20;1.63;;;9.00;99.90;;;;;;5043033;28;20029;-78
2021/11/09 01:30:19;;;;;;;10.57;2.80;;;9.00;99.90;;;;;;5042505;28;20053;-78
2021/11/09 01:32:46;;;;;;;3.22;1.88;;;8.90;99.90;;;;;;5042706;28;20029;-78
2021/11/09 01:35:12;;;;;;;12.77;2.03;;;8.90;99.90;;;;;;5044202;28;20068;-79
2021/11/09 01:37:38;;;;;;;5.28;2.13;;;8.90;99.90;;;;;;5042558;28;20036;-78
2021/11/09 01:40:07;;;;;;;7.40;2.30;;;8.90;99.90;;;;;;5043907;28;20059;-79
2021/11/09 01:42:32;;;;;;;2.90;1.88;;;8.90;99.90;;;;;;5043883;28;20029;-79
2021/11/09 01:44:58;;;;;;;2.13;1.35;;;8.90;99.90;;;;;;5043774;28;20133;-80
2021/11/09 01:47:24;;;;;;;3.50;1.85;;;8.90;99.90;;;;;;5041927;28;20060;-79
2021/11/09 01:49:49;;;;;;;9.63;1.83;;;9.00;99.90;;;;;;5042767;28;20056;-80
2021/11/09 01:52:15;;;;;;;3.03;1.63;;;9.00;99.90;;;;;;5045831;28;20097;-80
2021/11/09 01:54:41;;;;;;;2.47;1.40;;;9.00;99.90;;;;;;5046640;28;20137;-78
2021/11/09 01:57:06;;;;;;;3.83;1.25;;;8.90;99.90;;;;;;5046059;28;20040;-79
2021/11/09 01:59:32;;;;;;;2.97;1.58;;;8.90;99.90;;;;;;5045612;28;20035;-78
2021/11/09 02:01:58;;;;;;;2.70;1.92;;;9.00;99.90;;;;;;5045899;28;20120;-77
2021/11/09 02:04:24;;;;;;;2.38;1.42;;;9.00;99.90;;;;;;5047345;28;20065;-78
2021/11/09 02:06:50;;;;;;;3.47;2.03;;;8.90;99.90;;;;;;5046037;28;20021;-80
2021/11/09 02:09:18;;;;;;;6.18;2.55;;;9.00;99.90;;;;;;5047527;28;20033;-78
2021/11/09 02:11:47;;;;;;;6.05;2.17;;;9.00;99.90;;;;;;5047405;28;20048;-78
2021/11/09 02:14:13;;;;;;;7.53;2.53;;;9.00;99.90;;;;;;5046062;28;20076;-79
2021/11/09 02:16:39;;;;;;;4.68;1.90;;;9.00;99.90;;;;;;5047038;28;20034;-78
2021/11/09 02:19:06;;;;;;;5.43;2.25;;;8.90;99.90;;;;;;5046670;28;20029;-78
2021/11/09 02:21:32;;;;;;;6.05;2.45;;;8.90;99.90;;;;;;5047044;28;20036;-77
2021/11/09 02:23:58;;;;;;;5.18;3.10;;;9.00;99.90;;;;;;5033103;28;20038;-77
2021/11/09 02:26:25;;;;;;;5.13;3.03;;;8.90;99.90;;;;;;5027083;28;20026;-78
2021/11/09 02:28:55;;;;;;;7.53;2.75;;;8.90;99.90;;;;;;5026896;28;20076;-78
2021/11/09 02:31:21;;;;;;;10.23;3.03;;;8.90;99.90;;;;;;5027205;28;20033;-78
2021/11/09 02:33:48;;;;;;;10.40;2.20;;;8.90;99.90;;;;;;5026948;28;20054;-78
2021/11/09 02:36:15;;;;;;;7.88;2.75;;;8.90;99.90;;;;;;5026129;28;20030;-77
2021/11/09 02:38:41;;;;;;;2.60;1.73;;;8.90;99.90;;;;;;5027169;28;20022;-78
2021/11/09 02:41:07;;;;;;;5.32;2.72;;;8.90;99.90;;;;;;5026896;28;20057;-79
2021/11/09 02:43:33;;;;;;;4.10;2.22;;;8.90;99.90;;;;;;5025615;28;20032;-79
2021/11/09 02:46:33;;;;;;;4.60;2.13;;;8.90;99.90;;;;;;5025189;28;20049;-79
2021/11/09 02:51:54;;;;;;;4.90;2.72;;;8.90;99.90;;;;;;5046715;28;20033;-79
2021/11/09 02:54:28;;;;;;;5.28;2.45;;;9.00;99.90;;;;;;5045839;28;20040;-79
2021/11/09 02:56:59;;;;;;;3.40;1.98;;;8.90;99.90;;;;;;5045101;28;20084;-79
2021/11/09 03:05:43;;;;;;;11.35;2.67;;;9.00;99.90;;;;;;5041298;28;20109;-80
2021/11/09 03:07:53;;;;;;;4.60;2.75;;;9.00;99.90;;;;;;5043089;28;20029;-79
2021/11/09 03:10:31;;;;;;;9.10;2.63;;;9.00;99.90;;;;;;5045288;28;20026;-81
2021/11/09 03:12:57;;;;;;;7.35;3.63;;;9.00;99.90;;;;;;5046303;28;20382;-80
2021/11/09 03:15:29;;;;;;;5.20;2.55;;;9.00;99.90;;;;;;5044875;28;20029;-77
2021/11/09 03:18:08;;;;;;;5.88;3.03;;;9.00;99.90;;;;;;5046229;28;20021;-79
2021/11/09 03:47:26;;;;;;;11.88;3.63;;;8.90;99.90;;;;;;5045713;28;19905;-77
2021/11/09 03:49:53;;;;;;;11.48;3.33;;;8.90;99.90;;;;;;5044221;28;20025;-78
2021/11/09 03:52:25;;;;;;;14.90;4.25;;;8.80;99.90;;;;;;5045610;28;20110;-78
2021/11/09 03:54:57;;;;;;;12.20;4.53;;;8.80;99.90;;;;;;5045441;28;20033;-78
2021/11/09 03:57:33;;;;;;;10.05;4.15;;;8.80;99.90;;;;;;5045287;28;20032;-79
2021/11/09 04:05:10;;;;;;;13.30;4.55;;;8.80;99.90;;;;;;5045238;28;20646;-79
2021/11/09 04:07:47;;;;;;;11.02;4.55;;;8.70;99.90;;;;;;5045299;28;20089;-78
2021/11/09 04:13:03;;;;;;;9.45;4.45;;;8.70;99.90;;;;;;5045240;28;20036;-79
2021/11/09 04:18:14;;;;;;;13.25;4.95;;;8.80;99.90;;;;;;5044840;28;20053;-80
2021/11/09 05:01:11;;;;;;;18.40;6.95;;;8.70;99.90;;;;;;5044202;28;20526;-79
2021/11/09 05:08:45;;;;;;;13.68;5.47;;;8.60;99.90;;;;;;5044272;28;20030;-79
2021/11/09 05:11:10;;;;;;;;;;;8.60;99.90;;;;;;5044840;28;20037;-78
2021/11/09 05:13:36;;;;;;;11.55;4.68;;;8.60;99.90;;;;;;5042958;28;19959;-79
2021/11/09 05:16:02;;;;;;;18.67;5.10;;;8.50;99.90;;;;;;5043104;28;20143;-77
2021/11/09 05:18:28;;;;;;;12.80;5.00;;;8.50;99.90;;;;;;5044181;28;20481;-78
2021/11/09 05:20:54;;;;;;;16.30;5.07;;;8.50;99.90;;;;;;5044273;28;20022;-80
2021/11/09 05:23:21;;;;;;;12.65;6.68;;;8.40;99.90;;;;;;5043924;28;20014;-80
2021/11/09 05:25:50;;;;;;;9.10;5.07;;;8.40;99.90;;;;;;5043430;28;20030;-79
2021/11/09 05:28:16;;;;;;;15.18;5.80;;;8.40;99.90;;;;;;5048078;28;20029;-78
2021/11/09 05:30:46;;;;;;;16.60;6.40;;;8.40;99.90;;;;;;5048084;28;20151;-79
2021/11/09 05:33:13;;;;;;;18.38;8.82;;;8.30;99.90;;;;;;5048076;28;20051;-79
2021/11/09 05:35:38;;;;;;;18.33;6.38;;;8.30;99.90;;;;;;5046609;28;20065;-79
2021/11/09 05:38:05;;;;;;;14.75;5.97;;;8.30;99.90;;;;;;5046743;28;20033;-78
2021/11/09 05:40:51;;;;;;;9.75;4.93;;;8.30;99.90;;;;;;5046657;28;20025;-79
2021/11/09 05:43:17;;;;;;;15.10;4.50;;;8.20;99.90;;;;;;5048508;28;20025;-79
2021/11/09 05:45:42;;;;;;;12.63;4.75;;;8.20;99.90;;;;;;5046904;28;20037;-77
2021/11/09 05:48:08;;;;;;;22.67;5.43;;;8.20;99.90;;;;;;5048270;28;20026;-78
2021/11/09 05:50:33;;;;;;;14.43;5.40;;;8.20;99.90;;;;;;5048034;28;20467;-78
2021/11/09 05:52:59;;;;;;;14.15;5.05;;;8.20;99.90;;;;;;5046488;28;20056;-79
2021/11/09 05:55:25;;;;;;;13.48;5.45;;;8.20;99.90;;;;;;5046617;28;20116;-79
2021/11/09 05:57:51;;;;;;;16.83;5.55;;;8.10;99.90;;;;;;5046576;28;20061;-78
2021/11/09 06:00:17;;;;;;;10.52;4.15;;;8.10;99.90;;;;;;5047598;28;20155;-78
2021/11/09 06:02:43;;;;;;;25.17;5.75;;;8.10;99.90;;;;;;5046692;28;20120;-79
2021/11/09 06:05:09;;;;;;;10.38;5.13;;;8.10;99.90;;;;;;5045789;28;20140;-79
2021/11/09 06:07:35;;;;;;;13.10;5.63;;;8.10;99.90;;;;;;5046228;28;20036;-79
2021/11/09 06:10:02;;;;;;;11.05;4.55;;;8.10;99.90;;;;;;5028999;28;20026;-79
2021/11/09 06:12:27;;;;;;;12.05;5.07;;;8.00;99.90;;;;;;5027556;28;20018;-78
2021/11/09 06:14:53;;;;;;;15.82;6.22;;;8.00;99.90;;;;;;5027755;28;20030;-79
2021/11/09 06:17:18;;;;;;;17.48;6.43;;;8.00;99.90;;;;;;5027539;28;20030;-78
2021/11/09 06:19:44;;;;;;;27.70;4.60;;;8.00;99.90;;;;;;5026463;28;20033;-79
2021/11/09 06:22:11;;;;;;;11.38;5.38;;;7.90;99.90;;;;;;5026286;28;20117;-78
2021/11/09 06:24:36;;;;;;;13.15;4.82;;;7.80;99.90;;;;;;5025838;28;20049;-78
2021/11/09 06:27:02;;;;;;;16.25;5.05;;;7.90;99.90;;;;;;5037872;28;20025;-80
2021/11/09 06:29:28;;;;;;;12.13;5.22;;;7.90;99.90;;;;;;5045313;28;20060;-77
2021/11/09 06:31:57;;;;;;;18.33;6.00;;;7.90;99.90;;;;;;5046698;28;20025;-78
2021/11/09 06:34:22;;;;;;;15.63;6.05;;;7.90;99.90;;;;;;5046445;28;20053;-77
2021/11/09 06:36:49;;;;;;;17.80;5.95;;;7.90;99.90;;;;;;5032013;28;20492;-77
2021/11/09 06:39:15;;;;;;;12.80;5.63;;;7.90;99.90;;;;;;5032701;28;20033;-77
2021/11/09 06:41:41;;;;;;;12.48;5.32;;;7.90;99.90;;;;;;5034482;28;20021;-76
2021/11/09 06:44:06;;;;;;;19.83;6.28;;;7.90;99.90;;;;;;5034393;28;20557;-76
2021/11/09 06:46:32;;;;;;;15.82;6.38;;;7.90;99.90;;;;;;5035082;28;20089;-75
2021/11/09 06:48:58;;;;;;;18.42;5.53;;;7.90;99.90;;;;;;5038032;28;20034;-76
2021/11/09 06:51:24;;;;;;;20.77;6.10;;;7.80;99.90;;;;;;5038421;28;20101;-77
2021/11/09 06:53:49;;;;;;;17.73;5.60;;;7.80;99.90;;;;;;5027449;28;20033;-77
2021/11/09 06:56:16;;;;;;;17.35;6.55;;;7.70;99.90;;;;;;5042153;28;20509;-77
2021/11/09 06:58:42;;;;;;;21.38;6.00;;;7.70;99.90;;;;;;5044492;28;20052;-77
2021/11/09 07:01:09;;;;;;;24.58;6.13;;;7.70;99.90;;;;;;5039762;28;20573;-77
2021/11/09 07:03:34;;;;;;;10.75;4.85;;;7.60;99.90;;;;;;5027382;28;20053;-75
2021/11/09 07:06:01;;;;;;;23.85;6.55;;;7.60;99.90;;;;;;5038572;28;20042;-77
2021/11/09 07:08:27;;;;;;;18.98;6.93;;;7.50;99.90;;;;;;5032713;28;20032;-77
2021/11/09 07:10:53;;;;;;;13.45;5.63;;;7.50;99.90;;;;;;5039276;28;20022;-79
2021/11/09 07:13:18;;;;;;;17.75;6.40;;;7.50;99.90;;;;;;5030889;28;20056;-79
2021/11/09 07:15:44;;;;;;;23.20;7.30;;;7.50;99.90;;;;;;5062156;28;20025;-76
2021/11/09 07:18:11;;;;;;;19.70;7.63;;;7.50;99.90;;;;;;5039589;28;20036;-77
2021/11/09 07:20:37;;;;;;;25.17;7.90;;;7.60;99.90;;;;;;5039002;28;20052;-79
2021/11/09 07:23:04;;;;;;;16.08;7.00;;;7.60;99.90;;;;;;5045906;28;20025;-77
2021/11/09 07:25:33;;;;;;;21.40;8.18;;;7.70;99.90;;;;;;5043032;28;20033;-79
2021/11/09 07:28:00;;;;;;;15.23;7.20;;;7.70;99.90;;;;;;5035003;28;20026;-79
2021/11/09 07:30:29;;;;;;;23.83;7.38;;;7.80;99.90;;;;;;5046680;28;20140;-78
2021/11/09 07:32:55;;;;;;;27.90;7.82;;;7.80;99.90;;;;;;5040845;28;20034;-80
2021/11/09 07:35:20;;;;;;;21.33;6.20;;;7.90;99.90;;;;;;5032166;28;20084;-79
2021/11/09 07:37:47;;;;;;;20.20;8.05;;;7.90;99.90;;;;;;5037108;28;20025;-80
2021/11/09 07:40:13;;;;;;;21.42;7.13;;;8.00;99.90;;;;;;5045758;28;20055;-78
2021/11/09 07:42:49;;;;;;;18.73;6.88;;;8.10;99.90;;;;;;5046197;28;20025;-78
2021/11/09 07:45:19;;;;;;;19.65;6.40;;;8.20;99.90;;;;;;5045047;28;20037;-79
2021/11/09 07:47:46;;;;;;;14.30;6.68;;;8.20;99.90;;;;;;5025477;28;20034;-76
2021/11/09 07:50:11;;;;;;;18.00;6.75;;;8.40;99.90;;;;;;5030492;28;20056;-76
2021/11/09 07:52:37;;;;;;;13.63;5.53;;;8.30;99.90;;;;;;5043436;28;20037;-78
2021/11/09 07:55:07;;;;;;;14.15;7.22;;;8.40;99.90;;;;;;5043840;28;20042;-77
2021/11/09 07:57:43;;;;;;;13.93;6.93;;;8.40;99.90;;;;;;5051502;28;20021;-77
2021/11/09 08:00:24;;;;;;;12.15;5.88;;;8.40;99.90;;;;;;5046055;28;20029;-78
2021/11/09 08:08:18;;;;;;;13.85;6.57;;;8.70;99.90;;;;;;5065817;28;20078;-79
2021/11/09 08:10:44;;;;;;;15.43;6.13;;;8.80;99.90;;;;;;5033064;28;20026;-76
2021/11/09 08:13:10;;;;;;;19.17;6.20;;;8.90;99.90;;;;;;5044292;28;20500;-79
2021/11/09 08:15:37;;;;;;;17.92;6.95;;;9.00;99.90;;;;;;5045620;28;20093;-77
2021/11/09 08:18:04;;;;;;;14.35;6.30;;;9.00;99.90;;;;;;5043995;28;20053;-79
2021/11/09 08:20:29;;;;;;;22.42;7.30;;;9.10;99.90;;;;;;5035894;28;20026;-77
2021/11/09 08:22:55;;;;;;;17.73;7.00;;;9.10;99.90;;;;;;5025462;28;20050;-78
2021/11/09 08:25:21;;;;;;;13.48;6.38;;;9.20;99.90;;;;;;5026415;28;20041;-78
2021/11/09 08:27:47;;;;;;;18.08;5.80;;;9.30;99.90;;;;;;5052405;28;20029;-79
2021/11/09 08:30:14;;;;;;;13.18;6.68;;;9.30;99.90;;;;;;5044583;28;20064;-79
2021/11/09 08:32:42;;;;;;;15.25;6.18;;;9.40;99.90;;;;;;5057338;28;20025;-78
2021/11/09 08:35:09;;;;;;;16.38;6.60;;;9.40;99.90;;;;;;5043034;28;20346;-76
2021/11/09 08:37:34;;;;;;;25.95;7.88;;;9.50;99.90;;;;;;5029796;28;20017;-78
2021/11/09 08:40:04;;;;;;;23.67;6.32;;;9.50;99.90;;;;;;5025214;28;20081;-78
2021/11/09 08:42:37;;;;;;;23.80;7.20;;;9.60;99.90;;;;;;5023438;28;20065;-79
2021/11/09 08:45:15;;;;;;;10.52;6.40;;;9.70;99.90;;;;;;5032632;28;20093;-78
2021/11/09 08:47:48;;;;;;;13.95;6.57;;;9.80;99.90;;;;;;5038539;28;20057;-78
2021/11/09 08:50:17;;;;;;;23.83;5.53;;;9.80;99.90;;;;;;5043496;28;20092;-79
2021/11/09 08:52:44;;;;;;;34.85;7.97;;;9.90;99.90;;;;;;5039163;28;20034;-79
2021/11/09 08:58:02;;;;;;;19.67;7.20;;;10.00;99.90;;;;;;5026874;28;20036;-80
2021/11/09 09:06:03;;;;;;;12.18;6.85;;;10.10;99.90;;;;;;5044389;28;20051;-82
2021/11/09 09:08:30;;;;;;;35.20;7.78;;;10.10;99.90;;;;;;5038606;28;20025;-76
2021/11/09 09:10:56;;;;;;;23.50;7.25;;;10.10;99.90;;;;;;5039927;28;20033;-77
2021/11/09 09:13:22;;;;;;;21.75;7.38;;;10.20;99.90;;;;;;5072713;28;20032;-79
2021/11/09 09:15:53;;;;;;;13.00;5.82;;;10.30;99.90;;;;;;5064865;28;20033;-81
2021/11/09 09:18:20;;;;;;;16.33;6.93;;;10.40;99.90;;;;;;5065270;28;20036;-81
2021/11/09 09:20:53;;;;;;;20.63;6.57;;;10.40;99.90;;;;;;5035147;28;20041;-80
2021/11/09 09:23:31;;;;;;;18.13;6.75;;;10.60;99.90;;;;;;5023931;28;20474;-78
2021/11/09 09:33:36;;;;;;;16.55;6.45;;;11.00;99.90;;;;;;5044779;28;20045;-79
2021/11/09 09:57:31;;;;;;;21.33;7.05;;;11.70;99.90;;;;;;5042656;28;20032;-77
2021/11/09 09:59:57;;;;;;;34.38;6.32;;;11.80;99.90;;;;;;5044316;28;20026;-81
2021/11/09 10:02:26;;;;;;;21.10;7.22;;;11.90;99.90;;;;;;5043705;28;20021;-81
2021/11/09 10:05:00;;;;;;;19.13;6.78;;;12.00;99.90;;;;;;5024447;28;20112;-74
2021/11/09 10:07:37;;;;;;;20.60;6.70;;;12.10;99.90;;;;;;5022508;28;20029;-79
2021/11/09 10:10:12;;;;;;;21.80;6.68;;;12.20;99.90;;;;;;5023036;28;20037;-78
2021/11/09 10:12:41;;;;;;;21.15;6.70;;;12.30;99.90;;;;;;5025102;28;20041;-76
2021/11/09 10:15:09;;;;;;;21.40;7.22;;;12.30;99.90;;;;;;5026095;28;20052;-81
2021/11/09 10:17:37;;;;;;;14.70;6.22;;;12.30;99.90;;;;;;5026611;28;20022;-79
2021/11/09 10:20:18;;;;;;;25.90;6.95;;;12.40;99.90;;;;;;5034623;28;20484;-73
2021/11/09 10:22:47;;;;;;;28.13;5.63;;;12.40;99.90;;;;;;5047817;28;20055;-77
2021/11/09 10:25:16;;;;;;;16.30;5.55;;;12.30;99.90;;;;;;5043499;28;20045;-77
2021/11/09 10:27:49;;;;;;;17.83;6.03;;;12.40;99.90;;;;;;5027188;28;20518;-74
2021/11/09 10:30:21;;;;;;;17.42;5.60;;;12.50;99.90;;;;;;5038652;28;20046;-80
2021/11/09 10:32:48;;;;;;;19.30;4.90;;;12.50;99.90;;;;;;5044577;28;20059;-79
2021/11/09 10:35:17;;;;;;;17.45;5.97;;;12.50;99.90;;;;;;5040561;28;20036;-78
2021/11/09 10:37:54;;;;;;;21.63;6.03;;;12.70;99.90;;;;;;5045640;28;20036;-81
2021/11/09 10:40:31;;;;;;;13.82;4.95;;;12.70;99.90;;;;;;5046742;28;20025;-79
2021/11/09 10:43:00;;;;;;;15.80;5.40;;;12.80;99.90;;;;;;5045503;28;20048;-77
2021/11/09 10:45:29;;;;;;;22.55;5.95;;;13.00;99.90;;;;;;5046471;28;20037;-79
2021/11/09 10:48:01;;;;;;;29.55;5.50;;;13.10;99.90;;;;;;5045107;28;20385;-79
2021/11/09 10:50:35;;;;;;;10.98;4.93;;;13.20;99.90;;;;;;5039514;28;20084;-77
2021/11/09 10:53:02;;;;;;;13.32;4.93;;;13.50;99.90;;;;;;5061320;28;20136;-80
2021/11/09 10:55:36;;;;;;;14.43;4.80;;;13.70;99.90;;;;;;5065166;28;20024;-80
2021/11/09 11:06:18;;;;;;;23.65;5.47;;;14.00;99.90;;;;;;5029044;28;20061;-77
2021/11/09 11:08:48;;;;;;;18.27;5.65;;;14.00;99.90;;;;;;5035208;28;20452;-79
2021/11/09 11:11:37;;;;;;;10.05;5.03;;;14.10;99.90;;;;;;5035385;28;20091;-77
2021/11/09 11:14:05;;;;;;;22.80;5.32;;;14.20;99.90;;;;;;5043473;28;20040;-76
2021/11/09 11:16:45;;;;;;;15.90;5.22;;;14.50;99.90;;;;;;5046242;28;20034;-79
2021/11/09 11:19:14;;;;;;;20.95;5.10;;;14.70;99.90;;;;;;5042696;28;20097;-75
2021/11/09 11:21:40;;;;;;;13.90;5.18;;;14.90;99.90;;;;;;5033730;28;20060;-75
2021/11/09 11:24:09;;;;;;;16.55;4.40;;;14.90;99.90;;;;;;5045053;28;20025;-80
2021/11/09 11:26:37;;;;;;;15.43;4.57;;;14.70;99.90;;;;;;5041083;28;20030;-78
2021/11/09 11:29:04;;;;;;;15.57;4.15;;;14.70;99.90;;;;;;5035263;28;20113;-80
2021/11/09 11:31:30;;;;;;;14.50;5.28;;;14.80;99.90;;;;;;5046173;28;20024;-81
2021/11/09 11:33:56;;;;;;;28.15;6.22;;;14.80;99.90;;;;;;5044848;28;20022;-83
2021/11/09 11:36:23;;;;;;;22.42;4.80;;;14.80;99.90;;;;;;5049500;28;20021;-77
2021/11/09 11:38:53;;;;;;;15.15;4.60;;;14.90;99.90;;;;;;5066374;28;20028;-77
2021/11/09 11:41:27;;;;;;;17.80;5.05;;;15.00;99.90;;;;;;5064785;28;20045;-75
2021/11/09 11:43:55;;;;;;;18.15;5.25;;;14.80;99.90;;;;;;5065647;28;20045;-81
2021/11/09 11:46:34;;;;;;;16.60;5.18;;;14.60;99.90;;;;;;5063726;28;20021;-78
2021/11/09 11:49:05;;;;;;;10.75;4.32;;;14.40;99.90;;;;;;5045722;28;20427;-80
2021/11/09 11:51:53;;;;;;;12.52;4.93;;;14.30;99.90;;;;;;5042839;28;20026;-77
2021/11/09 11:54:39;;;;;;;13.93;4.80;;;14.10;99.90;;;;;;5018102;28;20038;-77
2021/11/09 11:57:04;;;;;;;20.88;5.90;;;14.00;99.90;;;;;;5031997;28;20029;-80
2021/11/09 11:59:33;;;;;;;17.90;4.70;;;14.00;99.90;;;;;;5044712;28;20072;-76
2021/11/09 12:02:10;;;;;;;29.48;6.22;;;14.00;99.90;;;;;;5043859;28;20032;-80
2021/11/09 12:04:36;;;;;;;10.88;4.13;;;14.10;99.90;;;;;;5048003;28;20067;-78
2021/11/09 12:07:18;;;;;;;16.17;5.75;;;14.30;99.90;;;;;;5064095;28;20028;-76
2021/11/09 12:09:47;;;;;;;17.08;4.40;;;14.40;99.90;;;;;;5024294;28;20044;-77
2021/11/09 12:12:19;;;;;;;13.27;4.82;;;14.50;99.90;;;;;;5025473;28;20033;-80
2021/11/09 12:14:55;;;;;;;9.63;4.03;;;14.50;99.90;;;;;;5024067;28;20085;-79
2021/11/09 12:17:41;;;;;;;23.85;4.88;;;14.60;99.90;;;;;;5025546;28;20028;-81
2021/11/09 12:20:13;;;;;;;12.82;4.88;;;14.60;99.90;;;;;;5028302;28;20065;-74
2021/11/09 12:22:54;;;;;;;19.77;4.35;;;14.70;99.90;;;;;;5041245;28;20101;-81
2021/11/09 12:25:35;;;;;;;15.55;4.97;;;14.60;99.90;;;;;;5025202;28;20038;-81
2021/11/09 12:28:07;;;;;;;18.13;4.53;;;14.70;99.90;;;;;;5025802;28;20057;-81
2021/11/09 12:30:34;;;;;;;12.88;3.85;;;14.80;99.90;;;;;;5025037;28;20042;-76
2021/11/09 12:33:14;;;;;;;18.40;4.63;;;15.00;99.90;;;;;;5025368;28;20041;-80
2021/11/09 12:35:40;;;;;;;22.65;4.22;;;15.00;99.90;;;;;;5024457;28;20030;-81
2021/11/09 12:38:13;;;;;;;12.45;3.70;;;15.10;99.90;;;;;;5024227;28;20092;-80
2021/11/09 12:40:47;;;;;;;12.50;4.15;;;15.10;99.90;;;;;;5025252;28;20056;-78
2021/11/09 12:43:31;;;;;;;14.02;4.75;;;15.20;99.90;;;;;;5025738;28;20096;-83
2021/11/09 12:46:11;;;;;;;10.88;3.78;;;15.40;99.90;;;;;;5025500;28;20042;-81
2021/11/09 12:48:53;;;;;;;23.13;4.28;;;15.80;99.90;;;;;;5024218;28;20030;-77
2021/11/09 12:51:28;;;;;;;9.32;4.35;;;16.10;99.90;;;;;;5034473;28;20025;-79
2021/11/09 12:54:05;;;;;;;8.07;2.92;;;16.50;99.90;;;;;;5045295;28;20496;-82
2021/11/09 12:56:36;;;;;;;17.65;4.15;;;16.70;99.90;;;;;;5048528;28;20022;-78
2021/11/09 12:59:08;;;;;;;11.70;3.72;;;16.90;99.90;;;;;;5063315;28;20033;-81
2021/11/09 13:04:31;;;;;;;7.53;2.78;;;17.10;99.90;;;;;;5051624;28;20044;-77
2021/11/09 13:09:31;;;;;;;11.77;3.38;;;16.90;99.90;;;;;;5044608;28;20037;-78
2021/11/09 13:12:08;;;;;;;7.55;2.72;;;17.10;99.90;;;;;;5055108;28;20032;-79
2021/11/09 13:14:50;;;;;;;8.23;2.63;;;17.40;99.90;;;;;;5064785;28;20029;-78
2021/11/09 13:17:23;;;;;;;9.35;2.80;;;17.70;99.90;;;;;;5063869;28;20025;-81
2021/11/09 13:20:34;;;;;;;8.20;2.88;;;17.80;99.90;;;;;;5064679;28;20029;-80
2021/11/09 13:22:59;;;;;;;9.90;2.63;;;18.00;99.90;;;;;;5041272;28;20026;-78
2021/11/09 13:25:35;;;;;;;17.13;2.75;;;18.10;99.90;;;;;;5038288;28;20045;-78
2021/11/09 13:28:04;;;;;;;13.98;2.53;;;18.40;99.90;;;;;;5025029;28;20033;-77
2021/11/09 13:30:30;;;;;;;10.57;2.70;;;18.40;99.90;;;;;;5024158;28;20042;-79
2021/11/09 13:32:58;;;;;;;7.55;3.25;;;18.50;99.90;;;;;;5032771;28;20032;-81
2021/11/09 13:35:27;;;;;;;17.27;3.47;;;18.40;99.90;;;;;;5042738;28;20478;-81
2021/11/09 13:38:08;;;;;;;8.63;3.08;;;18.70;99.90;;;;;;5044130;28;20075;-80
2021/11/09 13:40:35;;;;;;;11.52;3.25;;;18.70;99.90;;;;;;5044651;28;20900;-82
2021/11/09 13:43:04;;;;;;;6.38;2.80;;;18.60;99.90;;;;;;5043117;28;20037;-83
2021/11/09 13:45:30;;;;;;;8.70;2.00;;;18.70;99.90;;;;;;5040295;28;20051;-80
2021/11/09 13:47:55;;;;;;;15.98;2.95;;;18.30;99.90;;;;;;5045204;28;20026;-79
2021/11/09 13:50:21;;;;;;;9.35;3.08;;;17.70;99.90;;;;;;5047964;28;20571;-76
2021/11/09 13:52:51;;;;;;;7.88;2.67;;;16.90;99.90;;;;;;5046721;28;20386;-77
2021/11/09 13:55:20;;;;;;;13.00;2.78;;;16.30;99.90;;;;;;5048191;28;20021;-77
2021/11/09 13:57:47;;;;;;;9.65;2.78;;;16.40;99.90;;;;;;5048360;28;20026;-78
2021/11/09 14:00:19;;;;;;;11.10;3.28;;;16.40;99.90;;;;;;5047546;28;20021;-78
2021/11/09 14:03:01;;;;;;;10.07;2.20;;;16.20;99.90;;;;;;5048253;28;20052;-80
2021/11/09 14:16:50;;;;;;;7.47;2.35;;;14.60;99.90;;;;;;5044637;28;20026;-82
2021/11/09 14:19:24;;;;;;;9.48;2.55;;;14.30;99.90;;;;;;5046217;28;20029;-81
2021/11/09 14:21:50;;;;;;;15.75;3.95;;;14.10;99.90;;;;;;5046291;28;20034;-76
2021/11/09 14:24:26;;;;;;;8.60;2.38;;;14.00;99.90;;;;;;5046892;28;20042;-75
2021/11/09 14:27:25;;;;;;;8.48;2.20;;;13.80;99.90;;;;;;5069121;28;20041;-76
2021/11/09 14:29:59;;;;;;;19.92;3.00;;;13.70;99.90;;;;;;5044332;28;20053;-81
2021/11/09 14:32:28;;;;;;;9.10;2.80;;;13.60;99.90;;;;;;5046846;28;20026;-76
2021/11/09 14:34:57;;;;;;;8.43;2.45;;;13.80;99.90;;;;;;5046914;28;20381;-79
2021/11/09 14:37:31;;;;;;;8.65;2.33;;;14.20;99.90;;;;;;5057693;28;20079;-79
2021/11/09 14:39:58;;;;;;;;;;;14.70;99.90;;;;;;5046284;28;20049;-82
2021/11/09 14:43:17;;;;;;;25.77;2.60;;;15.10;99.90;;;;;;5045261;28;19905;-79
2021/11/09 14:45:35;;;;;;;3.78;1.67;;;15.40;99.90;;;;;;5040942;28;20128;-80
2021/11/09 14:48:08;;;;;;;8.30;2.90;;;15.50;99.90;;;;;;5047991;28;20030;-78
2021/11/09 14:50:41;;;;;;;8.27;3.05;;;15.10;99.90;;;;;;5043132;28;20017;-80
2021/11/09 14:53:20;;;;;;;6.85;2.70;;;14.70;99.90;;;;;;5046972;28;20025;-80
2021/11/09 14:55:52;;;;;;;4.38;2.05;;;14.40;99.90;;;;;;5046827;28;20025;-76
2021/11/09 14:58:32;;;;;;;13.63;2.35;;;14.00;99.90;;;;;;5040820;28;20034;-82
2021/11/09 15:01:07;;;;;;;5.25;2.35;;;13.70;99.90;;;;;;5037243;28;20065;-79
2021/11/09 15:03:54;;;;;;;4.90;2.22;;;13.50;99.90;;;;;;5026921;28;20062;-81
2021/11/09 15:06:37;;;;;;;4.28;1.88;;;13.30;99.90;;;;;;5027020;28;20034;-81
2021/11/09 15:25:42;;;;;;;8.43;1.70;;;12.30;99.90;;;;;;5025951;28;19940;-81
2021/11/09 15:28:26;;;;;;;22.30;2.72;;;12.30;99.90;;;;;;5025032;28;20053;-80
2021/11/09 15:31:05;;;;;;;5.63;2.13;;;12.20;99.90;;;;;;5041266;28;20044;-80
2021/11/09 15:33:46;;;;;;;8.52;2.38;;;12.10;99.90;;;;;;5033642;28;20233;-80
2021/11/09 15:38:48;;;;;;;13.20;3.25;;;11.90;99.90;;;;;;5029482;28;20030;-81
2021/11/09 15:41:15;;;;;;;5.07;2.80;;;11.90;99.90;;;;;;5025725;28;20415;-79
2021/11/09 15:43:41;;;;;;;10.38;2.08;;;11.70;99.90;;;;;;5024813;28;20030;-80
2021/11/09 15:46:09;;;;;;;16.25;3.22;;;11.60;99.90;;;;;;5026520;28;20475;-78
2021/11/09 15:48:35;;;;;;;12.77;2.45;;;11.50;99.90;;;;;;5039695;28;20021;-80
2021/11/09 15:51:00;;;;;;;7.50;2.83;;;11.50;99.90;;;;;;5044818;28;20371;-80
2021/11/09 15:53:30;;;;;;;12.55;2.47;;;11.40;99.90;;;;;;5045845;28;20022;-80
2021/11/09 15:55:57;;;;;;;7.55;2.35;;;11.40;99.90;;;;;;5043967;28;20025;-80
2021/11/09 15:58:24;;;;;;;13.50;3.05;;;11.30;99.90;;;;;;5045830;28;20048;-79